Decoded Metar for VTBU (RAYONG in THAILAND) (IATA:UTP) | Meteo·Mobile Aviation Weather
aviador You're here:

VTBU Decoded Metar

RAYONG in THAILAND
Report Time2020-02-18 20:30:00
UTC Time2020-02-18 21:11:15
Flight Rules mvfr MVFR
Wind360° at 04 kt
W.Decomp.*RWY 36: 4.0 kt HW 0 kt LCW
Visibility6000 m
Phenomena:N/A
Clouds:Few 020 Hf
Expected CloudBase > 2,400 ft AGL from Temp-Dew spread
CeilingNone
Temp25°C (ISA +10)
Dew Point19°C (69% RH)
QNH1014 hPa
Density Alt1,434 ft
Elevation16 ft
Report Wrong Elevation
Raw Report
VTBU 182030Z 36004KT 6000 FEW020 25/19 Q1014 NOSIG=

Extra information for VTBU:More info

Metar Taf Metar & Taf Last 4 Metars F.Rules Stats Wind Profile Meteogram Temp Stats Airport Information Weather charts Add Link Nearby VenuesMetar ALERT Operation Metar Decoded Social comments